AirNav   Duncan Aviation - Near you to keep you flying
 
 636 users online  

AZ90 Hangar Haciendas Airport
Laveen, Arizona, USA

GOING TO LAVEEN?


FAA INFORMATION EFFECTIVE 02 DECEMBER 2021

Location

FAA Identifier: AZ90
Lat/Long: 33-21-12.1630N 112-07-38.5370W
33-21.202717N 112-07.642283W
33.3533786,-112.1273714
(estimated)
Elevation: 1225 ft. / 373 m (estimated)
Variation: 13E (1985)
From city: 5 miles SE of LAVEEN, AZ
Time zone: UTC -7 (year round; does not observe DST)
Zip code: 85339

Airport Operations

Airport use: Private use. Permission required prior to landing
Activation date: 07/1991
Control tower: no
ARTCC: ALBUQUERQUE CENTER
FSS: PRESCOTT FLIGHT SERVICE STATION
Attendance: UNATNDD
Pattern altitude: 3225 ft. MSL
2500 FT MSL UPWIND, 2000 FT MSL DOWNWIND.
Wind indicator: yes
Segmented circle: no

Airport Communications

CTAF: 122.9
WX ASOS at PHX (8 nm NE): PHONE 602-231-8557
WX AWOS-3 at GEU (13 nm NW): PHONE 623-877-8609
WX AWOS-3PT at CHD (17 nm E): PHONE 480-814-9952
WX ASOS at SDL (19 nm NE): PHONE 480-483-3049

Nearby radio navigation aids

VOR radial/distance  VOR name  Freq  Var
PXRr227/9.2PHOENIX VORTAC115.6012E
IWAr264/24.0WILLIE VORTAC113.3013E
TFDr327/30.1STANFIELD VORTAC114.8012E
BXKr086/35.4BUCKEYE VORTAC110.6014E
GBNr035/36.4GILA BEND VORTAC116.6014E

Airport Services

Runway Information

Runway 8/26

Dimensions: 2436 x 24 ft. / 742 x 7 m
Surface: asphalt, in good condition
Runway edge markings: RWY NUMBERS AND CENTERLINE STRIPE IN GOOD CONDITION.
RUNWAY 8  RUNWAY 26
Traffic pattern: leftright
Markings: numbers only, in good condition
Obstructions: none40 ft. pline, 532 ft. from runway

Airport Ownership and Management from official FAA records

Ownership: Privately-owned
Owner: HANGAR HACIENDAS HOA
3143 W. AVION WAY
LAVEEN, AZ 85339
Phone (602) 237-4044
Manager: SCOTT JOHNSON
3143 W. AVION WAY
LAVEEN, AZ 85339
Phone (602) 320-2382

Airport Operational Statistics

Aircraft based on the field: 21
Single engine airplanes: 20
Helicopters: 1
    

Additional Remarks

HOLD HARMLESS AGREEMENT REQUIRED - CONTACT VIA WEBSITE: HANGARHACIENDAS.COM
WINDS PERMITTING, PREFERRED LANDING RWY 08, TAKEOFF RWY 26.
ASOS AT GYR, 13 NM WEST, FREQ - 118.35.
FOR CD CTC PHOENIX APCH AT 602-306-2565.

Instrument Procedures

There are no published instrument procedures at AZ90.

Some nearby airports with instrument procedures:

KPHX - Phoenix Sky Harbor International Airport (8 nm NE)
P19 - Stellar Airpark (11 nm E)
KGYR - Phoenix Goodyear Airport (13 nm W)
KGEU - Glendale Municipal Airport (13 nm NW)
KCHD - Chandler Municipal Airport (17 nm E)
KLUF - Luke Air Force Base (17 nm NW)
KSDL - Scottsdale Airport (19 nm NE)
 
Loc | Ops | Rwys | IFR | FBO | Links
Com | Nav | Svcs | Stats | Notes
Area around AZ90 (Hangar Haciendas Airport)
 
Road maps at: MapQuest Bing Google
 
Aerial photo
WARNING: Photo may not be current or correct
Aerial photo of AZ90 (Hangar Haciendas Airport)
Taken in February 2008

Do you have a better or more recent aerial photo of Hangar Haciendas Airport that you would like to share? If so, please send us your photo.

 
Sectional chart

 
Airport distance calculator
Flying to Hangar Haciendas Airport? Find the distance to fly.

From to AZ90

Sunrise and sunset
Times for 06-Dec-2021
 Local
(UTC-7)
 Zulu
(UTC)
Morning civil twilight06:5213:52
Sunrise07:1914:19
Sunset17:2000:20
Evening civil twilight17:4700:47

Current date and time
Zulu (UTC)  07-Dec-2021 06:01:26
Local (UTC-7)  06-Dec-2021 23:01:26
 
METAR
KPHX 
6nm NE 
070551Z 10006KT 10SM BKN250 16/02 A2993 RMK AO2 SLP126 T01610022 10239 20161 58003
KGYR 
13nm W 
070347Z 00000KT 10SM BKN250 15/01 A2995 RMK LAST
KGEU 
14nm NW 
070250Z 00000KT 10SM SCT250 16/01 A2996 RMK LAST
KLUF 
15nm NW 
070458Z AUTO 03004KT 10SM CLR 14/02 A2994 RMK AO2 SLP135 T01370020 $
KCHD 
16nm E 
070347Z 00000KT 10SM CLR 15/05 A2997 RMK LAST
KSDL 
19nm NE 
070553Z AUTO 00000KT 10SM CLR 15/01 A2996 RMK AO2 SLP132 T01500006 10228 20144 58003
TAF
KPHX 
6nm NE 
070303Z 0703/0806 VRB03KT P6SM OVC250 FM070500 10005KT P6SM OVC250 FM071800 16008KT P6SM OVC250 FM072200 27007KT P6SM SCT150 BKN200 FM080300 VRB06KT P6SM SCT100 BKN120
KLUF 
15nm NW 
070400Z 0704/0810 VRB06KT 9999 SCT200 BKN250 QNH2995INS BECMG 0720/0721 34006KT 9999 SCT100 BKN150 QNH2987INS BECMG 0800/0801 VRB06KT 9999 BKN100 OVC150 QNH2982INS TX23/0722Z TN07/0714Z
KSDL 
19nm NE 
061720Z 0618/0718 VRB04KT P6SM SCT250
NOTAMs
Click for the latest NOTAMs
NOTAMs are issued by the DoD/FAA and will open in a separate window not controlled by AirNav.

 

 
 

Would you like to see your business listed on this page?

 If your business provides an interesting product or service to pilots, flight crews, aircraft, or users of the Hangar Haciendas Airport, you should consider listing it here.  To start the listing process, click on the button below
 
Add a business
 

Other Pages about Hangar Haciendas Airport

Update a link
 
Copyright © AirNav, LLC. All rights reserved. Privacy Policy  Contact